Humaita Airport


Codes: SWHT/HUW
Name: Humaita Airport
City: Humaita
Country: Brazil
Elevation: 230 ft.
Wikipedia:

Photos at Humaita Airport


   Photos courtesy of SpottingLog. You can add your own sightings and photos by signing up for a free trial today.



No photos found.

Weather at Humaita Airport


Time (UTC)DescriptionTempratureWindCloud coverageVisibilityPressureHumidity
16-Jun-2024 00:00Scattered Clouds27°C2 mph, SE33%10000m1010hPa57%
16-Jun-2024 03:00Scattered Clouds26°C2 mph, E30%10000m1010hPa59%
16-Jun-2024 06:00Scattered Clouds26°C2 mph, NE45%10000m1011hPa59%
16-Jun-2024 09:00Few Clouds23°C2 mph, NE19%10000m1011hPa72%
16-Jun-2024 12:00Few Clouds26°C2 mph, NE16%10000m1013hPa62%
16-Jun-2024 15:00Broken Clouds34°C2 mph, E63%10000m1013hPa39%
16-Jun-2024 18:00Broken Clouds36°C7 mph, SE79%10000m1009hPa33%
16-Jun-2024 21:00Broken Clouds34°C2 mph, SE82%10000m1008hPa40%
17-Jun-2024 00:00Broken Clouds27°C4 mph, NE74%10000m1011hPa59%
17-Jun-2024 03:00Clear Sky25°C2 mph, NE7%10000m1011hPa73%
17-Jun-2024 06:00Clear Sky24°C2 mph, N4%10000m1010hPa77%
17-Jun-2024 09:00Clear Sky23°C2 mph, N0%10000m1010hPa81%
17-Jun-2024 12:00Clear Sky27°C2 mph, N0%10000m1011hPa68%
17-Jun-2024 15:00Clear Sky36°C2 mph, N0%10000m1011hPa36%
17-Jun-2024 18:00Clear Sky38°C4 mph, NE5%10000m1007hPa28%
17-Jun-2024 21:00Broken Clouds33°C2 mph, SE80%10000m1005hPa43%
18-Jun-2024 00:00Broken Clouds28°C2 mph, NE77%10000m1008hPa54%
18-Jun-2024 03:00Broken Clouds27°C2 mph, NE54%10000m1009hPa59%
18-Jun-2024 06:00Broken Clouds27°C2 mph, N71%10000m1008hPa58%
18-Jun-2024 09:00Scattered Clouds24°C2 mph, N29%10000m1008hPa71%
18-Jun-2024 12:00Few Clouds27°C2 mph, N15%10000m1010hPa65%
18-Jun-2024 15:00Clear Sky35°C4 mph, N2%10000m1010hPa39%
18-Jun-2024 18:00Few Clouds36°C2 mph, NE19%10000m1006hPa34%
18-Jun-2024 21:00Broken Clouds34°C2 mph, SW79%10000m1005hPa44%
19-Jun-2024 00:00Broken Clouds29°C2 mph, NE74%10000m1007hPa55%
19-Jun-2024 03:00Light Rain25°C4 mph, NW72%10000m1008hPa70%
19-Jun-2024 06:00Broken Clouds24°C2 mph, N59%10000m1008hPa77%
19-Jun-2024 09:00Broken Clouds23°C2 mph, N70%10000m1009hPa84%
19-Jun-2024 12:00Light Rain26°C2 mph, N57%10000m1011hPa77%
19-Jun-2024 15:00Clear Sky34°C2 mph, N7%10000m1011hPa42%
19-Jun-2024 18:00Scattered Clouds35°C2 mph, NE49%10000m1007hPa39%
19-Jun-2024 21:00Broken Clouds33°C4 mph, NE74%10000m1006hPa45%
20-Jun-2024 00:00Light Rain26°C4 mph, N88%10000m1008hPa73%
20-Jun-2024 03:00Light Rain24°C2 mph, N52%10000m1010hPa84%
20-Jun-2024 06:00Broken Clouds23°C2 mph, NW75%10000m1009hPa88%
20-Jun-2024 09:00Light Rain23°C0 mph, NE100%10000m1009hPa89%
20-Jun-2024 12:00Light Rain25°C2 mph, S97%10000m1011hPa78%
20-Jun-2024 15:00Scattered Clouds35°C2 mph, SE36%10000m1011hPa42%
20-Jun-2024 18:00Broken Clouds35°C2 mph, E60%10000m1008hPa37%
20-Jun-2024 21:00Overcast Clouds32°C0 mph, N98%10000m1007hPa50%